Time;durP1;ratioP1;P1;durP2;ratioP2;P2;SDS_P1;SDS_P2;PMS_P1;PMS_P2;Temp;Humidity;BMP_temperature;BMP_pressure;BME280_temperature;BME280_humidity;BME280_pressure;Samples;Min_cycle;Max_cycle;Signal;HPM_P1;HPM_P2
2021/11/23 00:02:15;;;;;;;12.00;4.18;;;4.40;97.40;;;;;;5005741;28;20125;-64
2021/11/23 00:04:41;;;;;;;13.00;4.35;;;4.40;97.30;;;;;;5013065;28;20468;-65
2021/11/23 00:07:06;;;;;;;8.02;3.90;;;4.40;97.40;;;;;;5013831;28;20039;-65
2021/11/23 00:09:32;;;;;;;8.88;4.65;;;4.50;97.40;;;;;;5002330;28;20033;-65
2021/11/23 00:11:57;;;;;;;13.88;4.05;;;4.60;97.50;;;;;;5014174;28;20033;-65
2021/11/23 00:14:23;;;;;;;15.18;4.55;;;4.60;97.60;;;;;;5008391;28;20504;-66
2021/11/23 00:16:48;;;;;;;14.50;4.68;;;4.60;97.70;;;;;;5017033;28;20040;-65
2021/11/23 00:19:14;;;;;;;10.23;3.80;;;4.60;97.80;;;;;;5007699;28;20133;-65
2021/11/23 00:21:40;;;;;;;8.27;3.78;;;4.60;98.00;;;;;;5010635;28;20051;-65
2021/11/23 00:24:06;;;;;;;11.95;4.55;;;4.60;98.10;;;;;;5006838;28;20029;-65
2021/11/23 00:26:32;;;;;;;16.95;4.43;;;4.60;98.10;;;;;;5015514;28;20707;-65
2021/11/23 00:28:57;;;;;;;12.57;4.45;;;4.60;98.20;;;;;;5011900;28;20026;-65
2021/11/23 00:31:23;;;;;;;15.27;4.90;;;4.70;98.20;;;;;;5013204;28;20091;-65
2021/11/23 00:33:48;;;;;;;16.00;4.78;;;4.70;98.40;;;;;;5010824;28;20256;-65
2021/11/23 00:36:14;;;;;;;15.23;4.82;;;4.70;98.50;;;;;;5007558;28;20055;-66
2021/11/23 00:38:45;;;;;;;15.88;5.43;;;4.70;98.60;;;;;;5015785;28;20449;-66
2021/11/23 00:41:12;;;;;;;19.08;5.45;;;4.70;98.70;;;;;;5001262;28;20026;-66
2021/11/23 00:43:39;;;;;;;10.15;4.63;;;4.70;98.70;;;;;;5009650;28;20037;-66
2021/11/23 00:46:05;;;;;;;17.88;5.55;;;4.80;98.70;;;;;;5011174;28;20107;-66
2021/11/23 00:48:30;;;;;;;14.82;5.10;;;4.80;98.90;;;;;;5011918;28;20448;-66
2021/11/23 00:50:56;;;;;;;12.68;4.68;;;4.90;98.90;;;;;;5004324;28;20030;-66
2021/11/23 00:53:21;;;;;;;10.43;5.40;;;4.90;98.90;;;;;;5003026;28;20029;-66
2021/11/23 00:55:47;;;;;;;9.77;5.03;;;4.90;99.00;;;;;;5015196;28;20025;-66
2021/11/23 00:58:14;;;;;;;12.18;5.68;;;4.90;99.10;;;;;;5008898;28;20031;-66
2021/11/23 01:00:39;;;;;;;18.42;5.72;;;4.90;99.10;;;;;;5005560;28;20101;-66
2021/11/23 01:03:05;;;;;;;15.43;6.50;;;5.00;99.20;;;;;;5010272;28;20137;-66
2021/11/23 01:05:30;;;;;;;16.58;5.32;;;5.00;99.40;;;;;;5005893;28;20485;-66
2021/11/23 01:07:56;;;;;;;11.73;6.07;;;5.00;99.40;;;;;;5011972;28;20029;-66
2021/11/23 01:10:22;;;;;;;12.77;6.25;;;5.00;99.50;;;;;;5012912;28;20193;-66
2021/11/23 01:12:48;;;;;;;15.88;5.85;;;5.00;99.50;;;;;;5010868;28;20124;-66
2021/11/23 01:15:14;;;;;;;14.90;5.93;;;5.00;99.50;;;;;;5010156;28;20259;-66
2021/11/23 01:17:40;;;;;;;12.77;6.22;;;5.00;99.50;;;;;;5008811;28;20043;-66
2021/11/23 01:20:08;;;;;;;15.25;6.47;;;5.00;99.50;;;;;;5008493;28;20421;-66
2021/11/23 01:22:33;;;;;;;13.68;6.47;;;5.10;99.60;;;;;;5013244;28;20116;-66
2021/11/23 01:24:59;;;;;;;21.60;6.72;;;5.10;99.60;;;;;;5011037;28;20128;-66
2021/11/23 01:27:24;;;;;;;17.30;6.82;;;5.10;99.70;;;;;;5012161;28;20578;-66
2021/11/23 01:29:50;;;;;;;12.60;6.88;;;5.10;99.70;;;;;;5013217;28;20414;-66
2021/11/23 01:32:16;;;;;;;15.05;7.38;;;5.10;99.70;;;;;;5016320;28;20106;-66
2021/11/23 01:34:41;;;;;;;24.30;7.45;;;5.10;99.70;;;;;;5012158;28;20349;-66
2021/11/23 01:37:07;;;;;;;18.45;7.40;;;5.10;99.80;;;;;;5011511;28;20417;-66
2021/11/23 01:39:32;;;;;;;18.10;8.18;;;5.20;99.80;;;;;;5008546;28;20128;-66
2021/11/23 01:41:58;;;;;;;24.23;8.63;;;5.20;99.80;;;;;;5002670;28;20057;-66
2021/11/23 01:44:23;;;;;;;19.67;8.07;;;5.20;99.90;;;;;;5007858;28;20033;-66
2021/11/23 01:46:49;;;;;;;17.48;8.82;;;5.30;99.90;;;;;;5012601;28;20108;-66
2021/11/23 01:49:15;;;;;;;16.00;9.20;;;5.30;99.90;;;;;;5010479;28;20033;-66
2021/11/23 01:51:41;;;;;;;16.73;8.57;;;5.30;99.90;;;;;;5007990;28;20045;-66
2021/11/23 01:54:07;;;;;;;16.38;9.68;;;5.40;99.90;;;;;;5000334;28;20030;-66
2021/11/23 01:56:32;;;;;;;17.30;9.82;;;5.30;99.90;;;;;;5009242;28;20420;-66
2021/11/23 01:58:58;;;;;;;20.02;9.30;;;5.40;99.90;;;;;;5006373;28;20061;-65
2021/11/23 02:01:24;;;;;;;16.73;9.02;;;5.40;99.90;;;;;;5015568;28;20368;-66
2021/11/23 02:03:49;;;;;;;23.33;9.57;;;5.40;99.90;;;;;;5005631;28;20057;-66
2021/11/23 02:06:15;;;;;;;20.92;10.35;;;5.50;99.90;;;;;;5013268;28;20022;-66
2021/11/23 02:08:41;;;;;;;17.02;10.30;;;5.50;99.90;;;;;;4998962;28;20588;-66
2021/11/23 02:11:07;;;;;;;23.60;9.90;;;5.50;99.90;;;;;;5007688;28;20376;-66
2021/11/23 02:13:33;;;;;;;18.67;10.65;;;5.50;99.90;;;;;;5011063;28;20100;-66
2021/11/23 02:15:59;;;;;;;24.00;11.38;;;5.60;99.90;;;;;;5018776;28;20109;-66
2021/11/23 02:18:26;;;;;;;18.20;10.98;;;5.60;99.90;;;;;;5011784;28;20033;-66
2021/11/23 02:20:52;;;;;;;25.70;12.25;;;5.60;99.90;;;;;;5017861;28;20439;-66
2021/11/23 02:23:19;;;;;;;18.83;11.38;;;5.60;99.90;;;;;;5007198;28;22492;-66
2021/11/23 02:25:44;;;;;;;23.98;11.65;;;5.60;99.90;;;;;;5010588;28;20033;-66
2021/11/23 02:28:11;;;;;;;21.85;11.93;;;5.60;99.90;;;;;;5005913;28;20044;-66
2021/11/23 02:30:46;;;;;;;16.95;12.20;;;5.60;99.90;;;;;;5007462;28;20532;-66
2021/11/23 02:33:14;;;;;;;27.70;12.27;;;5.60;99.90;;;;;;5005099;28;20376;-66
2021/11/23 02:35:40;;;;;;;26.73;12.85;;;5.60;99.90;;;;;;5005724;28;20026;-66
2021/11/23 02:38:06;;;;;;;30.15;13.88;;;5.60;99.90;;;;;;5000233;28;20033;-66
2021/11/23 02:40:31;;;;;;;22.17;12.90;;;5.60;99.90;;;;;;5005105;28;20030;-67
2021/11/23 02:42:57;;;;;;;22.88;13.45;;;5.60;99.90;;;;;;4999469;28;20095;-66
2021/11/23 02:45:26;;;;;;;23.33;13.82;;;5.70;99.90;;;;;;5008273;28;20473;-66
2021/11/23 02:47:54;;;;;;;29.05;14.23;;;5.70;99.90;;;;;;5003683;28;20632;-66
2021/11/23 02:50:21;;;;;;;22.63;13.38;;;5.70;99.90;;;;;;5007223;28;20412;-66
2021/11/23 02:52:48;;;;;;;25.70;14.45;;;5.80;99.90;;;;;;5009191;28;20099;-67
2021/11/23 02:55:15;;;;;;;30.77;13.90;;;5.70;99.90;;;;;;5008260;28;20029;-66
2021/11/23 02:57:41;;;;;;;24.83;13.93;;;5.70;99.90;;;;;;5013130;28;20052;-67
2021/11/23 03:00:19;;;;;;;28.90;13.88;;;5.80;99.90;;;;;;5003579;28;20026;-66
2021/11/23 03:02:45;;;;;;;29.60;14.13;;;5.80;99.90;;;;;;5007010;28;20040;-66
2021/11/23 03:05:12;;;;;;;24.38;14.18;;;5.80;99.90;;;;;;5006045;28;20072;-67
2021/11/23 03:07:38;;;;;;;23.40;13.18;;;5.80;99.90;;;;;;5007283;28;20129;-66
2021/11/23 03:10:07;;;;;;;26.02;13.48;;;5.80;99.90;;;;;;5009934;28;20026;-66
2021/11/23 03:12:32;;;;;;;29.48;14.48;;;5.90;99.90;;;;;;5006958;28;20369;-67
2021/11/23 03:14:58;;;;;;;19.63;13.55;;;5.80;99.90;;;;;;5017592;28;20242;-66
2021/11/23 03:17:24;;;;;;;21.55;12.55;;;5.80;99.90;;;;;;5014691;28;20026;-67
2021/11/23 03:19:50;;;;;;;22.20;14.60;;;5.90;99.90;;;;;;5013544;28;20033;-66
2021/11/23 03:22:16;;;;;;;23.30;14.25;;;5.90;99.90;;;;;;5011051;28;20064;-66
2021/11/23 03:24:42;;;;;;;26.45;14.32;;;5.90;99.90;;;;;;5007214;28;20408;-66
2021/11/23 03:27:10;;;;;;;24.48;15.40;;;5.90;99.90;;;;;;5015709;28;20132;-67
2021/11/23 03:29:37;;;;;;;33.17;16.10;;;5.90;99.90;;;;;;5017705;28;20284;-67
2021/11/23 03:32:04;;;;;;;26.80;15.82;;;5.90;99.90;;;;;;5014802;28;20032;-67
2021/11/23 03:34:37;;;;;;;27.20;14.85;;;6.00;99.90;;;;;;5013472;28;20041;-66
2021/11/23 03:37:12;;;;;;;25.70;15.35;;;6.00;99.90;;;;;;5012022;28;20169;-66
2021/11/23 03:39:38;;;;;;;24.33;15.25;;;6.00;99.90;;;;;;5004027;28;20096;-66
2021/11/23 03:42:04;;;;;;;33.85;16.52;;;6.00;99.90;;;;;;5015182;28;20429;-66
2021/11/23 03:44:31;;;;;;;26.75;15.18;;;6.00;99.90;;;;;;5010862;28;20369;-66
2021/11/23 03:46:57;;;;;;;28.98;15.13;;;6.00;99.90;;;;;;5016077;28;20040;-66
2021/11/23 03:49:22;;;;;;;27.30;14.98;;;6.00;99.90;;;;;;5046238;23;20032;-76
2021/11/23 03:51:48;;;;;;;29.63;14.40;;;6.00;99.90;;;;;;4959760;28;20507;-78
2021/11/23 03:54:14;;;;;;;25.50;15.93;;;6.10;99.90;;;;;;4967053;28;20034;-78
2021/11/23 03:56:40;;;;;;;31.45;15.70;;;6.10;99.90;;;;;;4966818;28;20023;-78
2021/11/23 03:59:06;;;;;;;25.45;15.25;;;6.10;99.90;;;;;;4968219;28;20019;-78
2021/11/23 04:01:32;;;;;;;22.73;14.98;;;6.10;99.90;;;;;;4946311;28;20411;-78
2021/11/23 04:03:57;;;;;;;29.70;15.82;;;6.10;99.90;;;;;;4951556;28;20039;-78
2021/11/23 04:06:23;;;;;;;30.45;16.05;;;6.10;99.90;;;;;;4949946;28;20032;-78
2021/11/23 04:08:48;;;;;;;27.58;15.55;;;6.10;99.90;;;;;;4944208;28;20036;-78
2021/11/23 04:11:13;;;;;;;24.10;14.65;;;6.10;99.90;;;;;;4948402;28;20027;-79
2021/11/23 04:13:40;;;;;;;25.48;15.55;;;6.10;99.90;;;;;;4957467;28;20119;-78
2021/11/23 04:16:06;;;;;;;29.27;15.30;;;6.10;99.90;;;;;;4964275;28;20031;-78
2021/11/23 04:18:31;;;;;;;27.73;15.35;;;6.20;99.90;;;;;;4941838;28;20062;-79
2021/11/23 04:20:57;;;;;;;30.27;15.75;;;6.20;99.90;;;;;;4945673;28;20028;-79
2021/11/23 04:23:22;;;;;;;36.10;16.02;;;6.20;99.90;;;;;;4947067;28;20020;-78
2021/11/23 04:25:48;;;;;;;33.50;15.82;;;6.20;99.90;;;;;;4950745;28;20430;-79
2021/11/23 04:28:13;;;;;;;31.67;16.23;;;6.30;99.90;;;;;;4947994;28;20023;-78
2021/11/23 04:30:39;;;;;;;29.33;15.27;;;6.30;99.90;;;;;;4953433;28;20039;-79
2021/11/23 04:33:04;;;;;;;30.50;15.40;;;6.30;99.90;;;;;;4952253;28;20563;-79
2021/11/23 04:35:31;;;;;;;27.23;15.50;;;6.30;99.90;;;;;;4948905;28;20027;-78
2021/11/23 04:37:56;;;;;;;30.67;15.88;;;6.30;99.90;;;;;;4951676;28;20030;-78
2021/11/23 04:40:22;;;;;;;27.63;15.60;;;6.30;99.90;;;;;;4949356;28;20389;-79
2021/11/23 04:42:47;;;;;;;32.47;15.80;;;6.40;99.90;;;;;;4949350;28;20424;-78
2021/11/23 04:45:14;;;;;;;37.55;15.00;;;6.40;99.90;;;;;;4949499;28;20039;-78
2021/11/23 04:47:39;;;;;;;27.73;13.82;;;6.40;99.90;;;;;;4947967;28;20456;-78
2021/11/23 04:50:07;;;;;;;28.95;14.43;;;6.40;99.90;;;;;;4945282;28;20041;-78
2021/11/23 04:52:33;;;;;;;25.25;13.70;;;6.40;99.90;;;;;;4953266;28;20023;-78
2021/11/23 04:54:59;;;;;;;23.08;13.13;;;6.40;99.90;;;;;;4947940;28;20567;-78
2021/11/23 04:57:24;;;;;;;28.88;13.82;;;6.50;99.90;;;;;;4949674;28;20126;-78
2021/11/23 04:59:51;;;;;;;23.65;12.25;;;6.50;99.90;;;;;;4950198;28;20031;-78
2021/11/23 05:02:16;;;;;;;25.02;13.43;;;6.40;99.90;;;;;;4954912;28;20077;-78
2021/11/23 05:04:42;;;;;;;28.58;13.93;;;6.40;99.90;;;;;;4953614;28;20460;-79
2021/11/23 05:07:07;;;;;;;25.20;12.50;;;6.50;99.90;;;;;;4950000;28;20471;-78
2021/11/23 05:09:33;;;;;;;26.63;13.38;;;6.50;99.90;;;;;;4944294;29;20082;-79
2021/11/23 05:11:59;;;;;;;22.52;12.77;;;6.50;99.90;;;;;;4941913;28;20034;-77
2021/11/23 05:14:25;;;;;;;22.60;12.80;;;6.50;99.90;;;;;;4948596;28;20058;-77
2021/11/23 05:16:50;;;;;;;27.05;12.38;;;6.50;99.90;;;;;;4951315;28;20035;-77
2021/11/23 05:19:16;;;;;;;19.80;12.27;;;6.50;99.90;;;;;;4947227;28;20036;-77
2021/11/23 05:21:41;;;;;;;24.85;11.93;;;6.50;99.90;;;;;;4941324;28;20126;-77
2021/11/23 05:24:09;;;;;;;22.23;12.15;;;6.50;99.90;;;;;;4939546;28;20190;-77
2021/11/23 05:26:35;;;;;;;22.33;11.40;;;6.50;99.90;;;;;;4946279;28;20034;-77
2021/11/23 05:29:01;;;;;;;22.65;10.90;;;6.60;99.90;;;;;;4948395;28;20043;-77
2021/11/23 05:31:26;;;;;;;22.73;10.45;;;6.50;99.90;;;;;;4946125;28;20031;-77
2021/11/23 05:33:52;;;;;;;20.90;10.55;;;6.50;99.90;;;;;;4946497;28;20444;-76
2021/11/23 05:36:17;;;;;;;22.75;10.95;;;6.60;99.90;;;;;;4948901;28;20031;-77
2021/11/23 05:38:43;;;;;;;20.58;9.85;;;6.50;99.90;;;;;;4950274;28;20034;-77
2021/11/23 05:41:08;;;;;;;20.83;10.23;;;6.60;99.90;;;;;;4945902;28;20081;-77
2021/11/23 05:43:34;;;;;;;19.40;10.27;;;6.60;99.90;;;;;;4948086;28;20522;-78
2021/11/23 05:46:00;;;;;;;22.98;10.98;;;6.60;99.90;;;;;;4963489;28;20031;-77
2021/11/23 05:48:25;;;;;;;20.08;10.30;;;6.60;99.90;;;;;;4943671;28;20477;-77
2021/11/23 05:50:51;;;;;;;21.05;10.45;;;6.60;99.90;;;;;;4963697;28;20403;-76
2021/11/23 05:53:16;;;;;;;21.02;11.00;;;6.60;99.90;;;;;;4946428;28;20063;-77
2021/11/23 05:55:42;;;;;;;19.00;10.77;;;6.50;99.90;;;;;;4936847;28;20081;-77
2021/11/23 05:58:08;;;;;;;19.58;10.25;;;6.60;99.90;;;;;;4937042;28;20047;-76
2021/11/23 06:00:35;;;;;;;19.67;10.45;;;6.60;99.90;;;;;;4943072;28;20043;-77
2021/11/23 06:03:00;;;;;;;22.42;10.70;;;6.60;99.90;;;;;;4934244;28;20037;-76
2021/11/23 06:05:26;;;;;;;30.30;11.40;;;6.60;99.90;;;;;;4944027;28;20725;-76
2021/11/23 06:07:52;;;;;;;24.25;12.15;;;6.60;99.90;;;;;;4939887;28;20035;-76
2021/11/23 06:10:17;;;;;;;25.35;12.25;;;6.60;99.90;;;;;;4936534;28;20123;-77
2021/11/23 06:12:43;;;;;;;26.52;12.00;;;6.60;99.90;;;;;;4943667;28;20042;-77
2021/11/23 06:15:10;;;;;;;27.67;11.85;;;6.60;99.90;;;;;;4941078;28;20027;-77
2021/11/23 06:17:37;;;;;;;33.63;12.18;;;6.60;99.90;;;;;;4948331;28;20031;-75
2021/11/23 06:20:04;;;;;;;26.13;12.07;;;6.60;99.90;;;;;;4942726;28;20059;-77
2021/11/23 06:22:32;;;;;;;32.33;12.85;;;6.60;99.90;;;;;;4946335;28;20302;-77
2021/11/23 06:24:58;;;;;;;37.50;13.60;;;6.50;99.90;;;;;;4944343;28;20031;-76
2021/11/23 06:27:24;;;;;;;33.92;12.73;;;6.60;99.90;;;;;;4940452;28;20065;-76
2021/11/23 06:29:49;;;;;;;30.80;12.48;;;6.60;99.90;;;;;;4938130;28;20051;-76
2021/11/23 06:32:15;;;;;;;32.47;13.70;;;6.60;99.90;;;;;;4963396;28;20023;-77
2021/11/23 06:34:40;;;;;;;33.42;13.60;;;6.60;99.90;;;;;;4952353;28;20417;-76
2021/11/23 06:37:06;;;;;;;41.50;13.73;;;6.60;99.90;;;;;;4942405;28;20023;-74
2021/11/23 06:39:31;;;;;;;37.42;13.25;;;6.60;99.90;;;;;;4941918;28;20439;-76
2021/11/23 06:41:57;;;;;;;37.55;13.68;;;6.60;99.90;;;;;;4946512;28;20112;-76
2021/11/23 06:44:22;;;;;;;41.22;14.20;;;6.60;99.90;;;;;;4943230;28;20544;-76
2021/11/23 06:46:48;;;;;;;35.30;14.68;;;6.70;99.90;;;;;;4942050;28;20114;-76
2021/11/23 06:49:13;;;;;;;33.63;13.98;;;6.70;99.90;;;;;;4940826;28;20051;-76
2021/11/23 06:51:40;;;;;;;44.40;15.80;;;6.70;99.90;;;;;;4945238;28;20113;-76
2021/11/23 06:54:05;;;;;;;45.20;16.02;;;6.70;99.90;;;;;;4948287;28;20086;-76
2021/11/23 06:56:31;;;;;;;43.00;15.20;;;6.70;99.90;;;;;;4940226;28;20477;-77
2021/11/23 06:58:56;;;;;;;42.45;15.38;;;6.70;99.90;;;;;;4959949;28;20492;-77
2021/11/23 07:01:22;;;;;;;43.17;15.65;;;6.70;99.90;;;;;;4945818;28;20086;-76
2021/11/23 07:03:48;;;;;;;44.40;15.50;;;6.70;99.90;;;;;;4947789;28;20500;-77
2021/11/23 07:06:13;;;;;;;42.30;16.42;;;6.70;99.90;;;;;;4944017;28;20043;-77
2021/11/23 07:08:39;;;;;;;40.22;16.23;;;6.70;99.90;;;;;;4946233;28;20460;-76
2021/11/23 07:11:06;;;;;;;43.45;15.98;;;6.70;99.90;;;;;;4944029;28;20360;-76
2021/11/23 07:13:33;;;;;;;47.10;16.25;;;6.70;99.90;;;;;;4944182;28;20407;-77
2021/11/23 07:15:59;;;;;;;41.72;15.75;;;6.70;99.90;;;;;;4949815;28;20086;-75
2021/11/23 07:18:24;;;;;;;43.50;14.85;;;6.70;99.90;;;;;;4946386;28;20024;-77
2021/11/23 07:20:50;;;;;;;45.30;14.40;;;6.60;99.90;;;;;;4946758;28;20031;-76
2021/11/23 07:23:15;;;;;;;35.42;14.35;;;6.70;99.90;;;;;;4939825;28;20369;-76
2021/11/23 07:25:41;;;;;;;45.90;14.20;;;6.70;99.90;;;;;;4950868;28;20043;-76
2021/11/23 07:28:07;;;;;;;38.03;14.80;;;6.70;99.90;;;;;;4940768;28;20065;-76
2021/11/23 07:30:32;;;;;;;39.67;14.95;;;6.70;99.90;;;;;;4940328;28;20231;-75
2021/11/23 07:32:58;;;;;;;34.72;14.07;;;6.70;99.90;;;;;;4942149;28;20038;-74
2021/11/23 07:35:24;;;;;;;44.75;15.18;;;6.80;99.90;;;;;;4937782;28;20400;-75
2021/11/23 07:37:49;;;;;;;45.60;16.35;;;6.70;99.90;;;;;;4942029;28;20099;-75
2021/11/23 07:40:16;;;;;;;39.55;14.75;;;6.70;99.90;;;;;;4946665;28;20037;-76
2021/11/23 07:42:43;;;;;;;42.63;15.98;;;6.70;99.90;;;;;;4941977;28;20535;-76
2021/11/23 07:45:10;;;;;;;35.67;15.52;;;6.80;99.90;;;;;;4944678;28;20075;-76
2021/11/23 07:47:35;;;;;;;38.83;14.90;;;6.80;99.90;;;;;;4941376;28;20078;-75
2021/11/23 07:50:01;;;;;;;41.75;14.63;;;6.80;99.90;;;;;;4941982;28;20520;-75
2021/11/23 07:52:27;;;;;;;36.53;14.73;;;6.80;99.90;;;;;;4940249;28;20031;-76
2021/11/23 07:54:52;;;;;;;44.08;15.20;;;6.80;99.90;;;;;;4943471;28;20024;-76
2021/11/23 07:57:19;;;;;;;31.40;12.60;;;6.80;99.90;;;;;;4947050;28;20066;-76
2021/11/23 07:59:45;;;;;;;32.08;12.02;;;6.80;99.90;;;;;;4943717;28;20086;-74
2021/11/23 08:02:13;;;;;;;36.42;12.98;;;6.80;99.90;;;;;;4946924;28;20031;-75
2021/11/23 08:04:39;;;;;;;33.25;12.40;;;6.80;99.90;;;;;;4942304;28;20039;-76
2021/11/23 08:07:04;;;;;;;28.90;11.32;;;6.90;99.90;;;;;;4945043;28;20023;-76
2021/11/23 08:09:30;;;;;;;28.08;11.48;;;6.80;99.90;;;;;;4943271;28;20026;-76
2021/11/23 08:11:55;;;;;;;28.48;11.60;;;6.80;99.90;;;;;;4948396;28;20106;-76
2021/11/23 08:14:23;;;;;;;30.98;10.75;;;6.70;99.90;;;;;;4946677;28;20159;-76
2021/11/23 08:16:49;;;;;;;25.55;11.23;;;6.80;99.90;;;;;;4947855;28;20031;-76
2021/11/23 08:19:15;;;;;;;22.88;10.23;;;6.70;99.90;;;;;;4947737;28;20030;-76
2021/11/23 08:21:40;;;;;;;22.08;9.70;;;6.80;99.90;;;;;;4950295;28;20039;-76
2021/11/23 08:24:06;;;;;;;24.33;9.60;;;6.80;99.90;;;;;;4948326;28;20039;-77
2021/11/23 08:26:32;;;;;;;22.58;9.00;;;6.80;99.90;;;;;;4939675;28;20543;-76
2021/11/23 08:28:58;;;;;;;23.42;9.35;;;6.90;99.90;;;;;;4948143;28;20042;-77
2021/11/23 08:31:24;;;;;;;18.15;9.07;;;6.90;99.90;;;;;;4941992;28;20032;-76
2021/11/23 08:33:49;;;;;;;17.75;9.02;;;6.90;99.90;;;;;;4949443;28;20023;-77
2021/11/23 08:36:15;;;;;;;19.33;8.70;;;6.90;99.90;;;;;;4943549;28;20035;-77
2021/11/23 08:38:40;;;;;;;22.67;9.02;;;6.90;99.90;;;;;;4949363;28;20113;-77
2021/11/23 08:41:06;;;;;;;25.42;10.05;;;6.90;99.90;;;;;;4949516;28;20513;-77
2021/11/23 08:43:32;;;;;;;23.05;10.45;;;6.90;99.90;;;;;;4947960;28;20036;-77
2021/11/23 08:45:58;;;;;;;23.38;9.85;;;6.90;99.90;;;;;;4942427;28;20043;-77
2021/11/23 08:48:24;;;;;;;28.05;10.13;;;7.00;99.90;;;;;;4946552;28;20031;-77
2021/11/23 08:50:49;;;;;;;24.30;9.65;;;7.00;99.90;;;;;;4948703;28;20672;-77
2021/11/23 08:53:15;;;;;;;28.20;9.88;;;7.00;99.90;;;;;;4956259;28;20032;-77
2021/11/23 08:55:41;;;;;;;19.50;8.88;;;7.10;99.90;;;;;;4950329;28;20440;-77
2021/11/23 08:58:08;;;;;;;17.10;8.88;;;7.10;99.90;;;;;;4949312;28;20035;-77
2021/11/23 09:00:35;;;;;;;17.88;8.43;;;7.10;99.90;;;;;;4950325;28;20035;-77
2021/11/23 09:03:01;;;;;;;22.75;8.88;;;7.10;99.90;;;;;;4952399;28;20034;-77
2021/11/23 09:05:33;;;;;;;18.38;7.43;;;7.10;99.90;;;;;;4949654;28;20058;-76
2021/11/23 09:08:01;;;;;;;17.05;8.35;;;7.10;99.90;;;;;;4949160;28;20031;-77
2021/11/23 09:10:29;;;;;;;15.65;7.38;;;7.10;99.90;;;;;;4954746;28;20027;-77
2021/11/23 09:12:58;;;;;;;17.25;7.28;;;7.10;99.90;;;;;;4951314;28;20484;-77
2021/11/23 09:15:25;;;;;;;13.27;7.22;;;7.10;99.90;;;;;;4945114;28;20039;-76
2021/11/23 09:17:51;;;;;;;11.98;7.18;;;7.10;99.90;;;;;;4940871;28;20027;-77
2021/11/23 09:20:18;;;;;;;18.45;7.22;;;7.10;99.90;;;;;;4946929;28;20117;-75
2021/11/23 09:22:44;;;;;;;18.75;8.10;;;7.10;99.90;;;;;;4949750;28;20501;-77
2021/11/23 09:25:11;;;;;;;12.20;6.70;;;7.20;99.90;;;;;;4943995;28;20119;-76
2021/11/23 09:27:37;;;;;;;13.32;6.63;;;7.20;99.90;;;;;;4951491;28;20058;-75
2021/11/23 09:30:06;;;;;;;16.23;6.35;;;7.20;99.90;;;;;;4946920;28;20093;-76
2021/11/23 09:32:31;;;;;;;12.07;6.32;;;7.20;99.90;;;;;;4954791;28;20031;-77
2021/11/23 09:34:57;;;;;;;14.35;6.53;;;7.30;99.90;;;;;;4953753;28;20360;-76
2021/11/23 09:37:23;;;;;;;14.18;6.43;;;7.30;99.90;;;;;;4946762;28;20254;-77
2021/11/23 09:39:48;;;;;;;15.40;5.65;;;7.30;99.90;;;;;;4945422;28;20106;-76
2021/11/23 09:42:14;;;;;;;13.13;5.57;;;7.30;99.90;;;;;;4950557;28;20345;-76
2021/11/23 09:44:42;;;;;;;12.60;6.25;;;7.30;99.90;;;;;;4947014;28;20142;-75
2021/11/23 09:47:08;;;;;;;18.60;6.28;;;7.30;99.90;;;;;;4946702;28;20042;-76
2021/11/23 09:49:33;;;;;;;16.00;6.00;;;7.40;99.90;;;;;;4946231;28;20031;-74
2021/11/23 09:51:59;;;;;;;13.30;6.03;;;7.30;99.90;;;;;;4972374;23;20091;-64
2021/11/23 09:54:25;;;;;;;14.70;6.07;;;7.40;99.90;;;;;;4954886;28;20031;-65
2021/11/23 09:56:50;;;;;;;18.45;6.45;;;7.50;99.90;;;;;;4949954;28;20061;-66
2021/11/23 09:59:17;;;;;;;14.00;7.07;;;7.60;99.90;;;;;;4959947;28;20038;-65
2021/11/23 10:01:54;;;;;;;16.00;7.65;;;7.60;99.90;;;;;;4944184;28;20474;-66
2021/11/23 10:04:22;;;;;;;14.25;7.13;;;7.80;99.90;;;;;;4928639;28;20069;-64
2021/11/23 10:06:56;;;;;;;14.13;6.78;;;7.90;99.90;;;;;;4925201;28;20094;-64
2021/11/23 10:09:49;;;;;;;19.00;7.70;;;7.90;99.60;;;;;;4926831;28;20050;-64
2021/11/23 10:12:21;;;;;;;13.77;6.32;;;8.00;99.60;;;;;;4936826;29;20122;-64
2021/11/23 10:15:14;;;;;;;10.77;6.35;;;8.00;99.50;;;;;;4938676;28;20090;-64
2021/11/23 10:17:42;;;;;;;14.80;6.78;;;7.90;99.30;;;;;;4934675;28;20056;-64
2021/11/23 10:20:25;;;;;;;12.15;6.32;;;7.90;99.40;;;;;;4946067;28;20042;-64
2021/11/23 10:22:51;;;;;;;12.40;5.97;;;8.00;99.30;;;;;;4944291;28;20043;-64
2021/11/23 10:25:16;;;;;;;14.68;6.18;;;8.00;99.10;;;;;;4935474;28;20173;-67
2021/11/23 10:27:43;;;;;;;12.80;5.88;;;8.10;99.10;;;;;;4933907;28;20411;-65
2021/11/23 10:30:10;;;;;;;13.52;5.57;;;8.00;99.00;;;;;;4937078;28;20026;-65
2021/11/23 10:32:50;;;;;;;15.55;5.78;;;8.00;98.80;;;;;;4925352;28;20031;-65
2021/11/23 10:35:22;;;;;;;15.65;4.85;;;8.00;98.70;;;;;;4937969;28;20453;-64
2021/11/23 10:37:48;;;;;;;13.82;5.35;;;8.00;98.60;;;;;;4931331;28;20027;-65
2021/11/23 10:40:18;;;;;;;12.40;5.38;;;8.10;98.70;;;;;;4935827;28;20069;-65
2021/11/23 10:42:49;;;;;;;11.07;5.22;;;8.10;98.60;;;;;;4942430;28;20031;-65
2021/11/23 10:45:15;;;;;;;11.18;5.03;;;8.10;98.70;;;;;;4931534;28;20039;-64
2021/11/23 10:47:43;;;;;;;11.40;4.90;;;8.10;98.50;;;;;;4934994;29;20042;-65
2021/11/23 10:50:11;;;;;;;9.07;4.72;;;8.10;98.50;;;;;;4936880;28;20402;-65
2021/11/23 10:52:41;;;;;;;11.00;5.65;;;8.10;98.50;;;;;;4940268;28;20031;-65
2021/11/23 10:55:30;;;;;;;12.65;5.43;;;8.20;98.40;;;;;;4930040;28;20356;-65
2021/11/23 10:57:58;;;;;;;13.52;5.38;;;8.20;98.40;;;;;;4927269;28;20134;-65
2021/11/23 11:00:28;;;;;;;13.65;5.78;;;8.20;98.30;;;;;;4938736;28;20466;-65
2021/11/23 11:02:59;;;;;;;12.63;5.60;;;8.20;98.30;;;;;;4942175;29;20046;-65
2021/11/23 11:05:25;;;;;;;13.40;5.20;;;8.20;98.30;;;;;;4942090;29;20023;-65
2021/11/23 11:07:53;;;;;;;11.13;5.63;;;8.20;98.20;;;;;;4935113;28;20083;-65
2021/11/23 11:10:19;;;;;;;10.55;5.38;;;8.30;98.40;;;;;;4938264;28;20027;-65
2021/11/23 11:12:45;;;;;;;10.63;4.63;;;8.50;98.30;;;;;;4941635;28;20023;-65
2021/11/23 11:15:13;;;;;;;7.85;4.22;;;8.60;97.90;;;;;;4941355;29;20039;-65
2021/11/23 11:17:39;;;;;;;9.70;4.10;;;8.60;98.00;;;;;;4937616;28;20031;-65
2021/11/23 11:20:08;;;;;;;14.45;4.32;;;8.60;97.60;;;;;;4939037;29;20070;-65
2021/11/23 11:22:34;;;;;;;10.63;4.00;;;8.70;97.60;;;;;;4939309;29;20039;-65
2021/11/23 11:27:33;;;;;;;9.88;4.28;;;8.50;97.40;;;;;;4940702;28;20027;-65
2021/11/23 11:30:22;;;;;;;19.42;4.60;;;8.60;97.30;;;;;;4935730;28;20069;-65
2021/11/23 11:32:50;;;;;;;6.78;3.45;;;8.70;96.90;;;;;;4940844;29;20330;-65
2021/11/23 11:35:23;;;;;;;8.55;3.38;;;8.80;96.70;;;;;;4943324;28;20398;-65
2021/11/23 11:37:51;;;;;;;8.18;2.80;;;8.90;96.70;;;;;;4935628;28;20036;-65
2021/11/23 11:40:25;;;;;;;8.73;2.50;;;8.90;96.20;;;;;;4945945;28;20042;-65
2021/11/23 11:43:04;;;;;;;7.55;3.30;;;8.90;96.10;;;;;;4947730;29;20039;-64
2021/11/23 11:45:47;;;;;;;8.23;2.80;;;8.80;96.30;;;;;;4938694;28;20028;-65
2021/11/23 11:48:32;;;;;;;9.85;3.00;;;8.80;96.60;;;;;;4938108;29;20222;-65
2021/11/23 11:51:26;;;;;;;6.22;2.63;;;8.60;96.60;;;;;;4948903;28;20255;-65
2021/11/23 11:53:52;;;;;;;6.22;3.00;;;8.80;96.50;;;;;;4945152;28;20027;-65
2021/11/23 11:56:37;;;;;;;4.97;2.95;;;9.10;96.00;;;;;;4941930;28;20090;-65
2021/11/23 11:59:24;;;;;;;10.02;3.13;;;8.90;95.60;;;;;;4939968;28;20474;-65
2021/11/23 12:01:51;;;;;;;8.93;2.80;;;8.80;95.80;;;;;;4934503;28;20047;-64
2021/11/23 12:04:21;;;;;;;8.55;3.05;;;8.80;96.00;;;;;;4936063;29;20023;-65
2021/11/23 12:09:56;;;;;;;7.05;2.65;;;8.80;96.20;;;;;;4939409;28;20466;-65
2021/11/23 12:12:49;;;;;;;8.60;2.67;;;8.70;96.40;;;;;;4920792;29;20058;-65
2021/11/23 12:15:35;;;;;;;7.70;2.60;;;8.70;96.30;;;;;;4934064;28;20027;-65
2021/11/23 12:18:26;;;;;;;7.90;2.55;;;8.80;96.00;;;;;;4943257;29;20077;-65
2021/11/23 12:21:03;;;;;;;;;;;9.00;95.10;;;;;;4934316;28;20115;-65
2021/11/23 12:23:54;;;;;;;5.35;2.35;;;9.10;94.70;;;;;;4941648;28;19930;-65
2021/11/23 12:26:23;;;;;;;6.60;2.58;;;8.90;94.80;;;;;;4936354;28;20096;-65
2021/11/23 12:29:16;;;;;;;5.82;1.95;;;9.00;95.30;;;;;;4941010;29;20111;-65
2021/11/23 12:31:45;;;;;;;5.90;2.30;;;8.90;94.90;;;;;;4943417;28;20475;-65
2021/11/23 12:34:11;;;;;;;7.65;2.40;;;9.00;94.90;;;;;;4942698;28;20351;-65
2021/11/23 12:36:46;;;;;;;7.50;2.40;;;9.00;95.10;;;;;;4939996;28;20043;-65
2021/11/23 12:39:15;;;;;;;10.65;2.38;;;9.00;95.20;;;;;;4943097;28;20520;-65
2021/11/23 12:41:42;;;;;;;8.30;2.55;;;9.00;95.10;;;;;;4938237;28;20042;-65
2021/11/23 12:44:21;;;;;;;7.53;1.60;;;9.00;94.80;;;;;;4937247;29;20517;-64
2021/11/23 12:46:56;;;;;;;5.35;1.80;;;8.90;94.60;;;;;;4944100;28;20516;-65
2021/11/23 12:49:22;;;;;;;10.50;2.20;;;8.90;94.90;;;;;;4934799;28;20134;-65
2021/11/23 12:51:57;;;;;;;10.15;2.58;;;8.90;95.00;;;;;;4944564;28;20066;-65